sensor_id;sensor_type;location;lat;lon;timestamp;P1;durP1;ratioP1;P2;durP2;ratioP2
65691;SDS011;52411;52.716;6.696;2023-06-24T00:01:35;12.95;;;9.30;;
65691;SDS011;52411;52.716;6.696;2023-06-24T00:04:03;16.23;;;8.75;;
65691;SDS011;52411;52.716;6.696;2023-06-24T00:06:29;11.95;;;9.10;;
65691;SDS011;52411;52.716;6.696;2023-06-24T00:08:54;13.35;;;8.15;;
65691;SDS011;52411;52.716;6.696;2023-06-24T00:11:26;11.05;;;8.95;;
65691;SDS011;52411;52.716;6.696;2023-06-24T00:13:52;13.35;;;8.75;;
65691;SDS011;52411;52.716;6.696;2023-06-24T00:16:18;12.60;;;8.68;;
65691;SDS011;52411;52.716;6.696;2023-06-24T00:18:55;13.45;;;9.80;;
65691;SDS011;52411;52.716;6.696;2023-06-24T00:21:25;20.98;;;10.55;;
65691;SDS011;52411;52.716;6.696;2023-06-24T00:23:58;13.88;;;10.02;;
65691;SDS011;52411;52.716;6.696;2023-06-24T00:26:26;16.40;;;10.73;;
65691;SDS011;52411;52.716;6.696;2023-06-24T00:28:52;13.50;;;9.23;;
65691;SDS011;52411;52.716;6.696;2023-06-24T00:31:18;11.52;;;8.60;;
65691;SDS011;52411;52.716;6.696;2023-06-24T00:33:45;10.82;;;8.20;;
65691;SDS011;52411;52.716;6.696;2023-06-24T00:36:11;13.10;;;7.55;;
65691;SDS011;52411;52.716;6.696;2023-06-24T00:38:39;11.95;;;8.55;;
65691;SDS011;52411;52.716;6.696;2023-06-24T00:41:05;9.35;;;7.55;;
65691;SDS011;52411;52.716;6.696;2023-06-24T00:43:32;10.90;;;7.93;;
65691;SDS011;52411;52.716;6.696;2023-06-24T00:45:58;11.80;;;9.27;;
65691;SDS011;52411;52.716;6.696;2023-06-24T00:48:24;12.32;;;8.10;;
65691;SDS011;52411;52.716;6.696;2023-06-24T00:50:50;17.60;;;9.98;;
65691;SDS011;52411;52.716;6.696;2023-06-24T00:53:16;13.63;;;10.45;;
65691;SDS011;52411;52.716;6.696;2023-06-24T00:55:43;14.82;;;10.75;;
65691;SDS011;52411;52.716;6.696;2023-06-24T00:58:10;14.60;;;10.38;;
65691;SDS011;52411;52.716;6.696;2023-06-24T01:00:41;16.30;;;10.45;;
65691;SDS011;52411;52.716;6.696;2023-06-24T01:03:09;10.70;;;8.55;;
65691;SDS011;52411;52.716;6.696;2023-06-24T01:05:37;10.85;;;7.88;;
65691;SDS011;52411;52.716;6.696;2023-06-24T01:08:02;17.85;;;10.55;;
65691;SDS011;52411;52.716;6.696;2023-06-24T01:10:28;12.35;;;9.00;;
65691;SDS011;52411;52.716;6.696;2023-06-24T01:12:54;12.30;;;9.00;;
65691;SDS011;52411;52.716;6.696;2023-06-24T01:15:19;11.25;;;9.35;;
65691;SDS011;52411;52.716;6.696;2023-06-24T01:18:02;15.30;;;9.00;;
65691;SDS011;52411;52.716;6.696;2023-06-24T01:20:49;14.95;;;10.20;;
65691;SDS011;52411;52.716;6.696;2023-06-24T01:23:30;17.20;;;9.85;;
65691;SDS011;52411;52.716;6.696;2023-06-24T01:29:20;14.65;;;10.57;;
65691;SDS011;52411;52.716;6.696;2023-06-24T01:34:37;15.02;;;11.02;;
65691;SDS011;52411;52.716;6.696;2023-06-24T01:39:44;14.68;;;10.65;;
65691;SDS011;52411;52.716;6.696;2023-06-24T01:42:17;14.32;;;10.45;;
65691;SDS011;52411;52.716;6.696;2023-06-24T01:44:47;12.45;;;9.25;;
65691;SDS011;52411;52.716;6.696;2023-06-24T01:47:14;15.45;;;10.10;;
65691;SDS011;52411;52.716;6.696;2023-06-24T01:49:52;16.35;;;9.93;;
65691;SDS011;52411;52.716;6.696;2023-06-24T01:52:20;13.40;;;9.00;;
65691;SDS011;52411;52.716;6.696;2023-06-24T01:54:48;12.65;;;9.77;;
65691;SDS011;52411;52.716;6.696;2023-06-24T01:57:16;12.95;;;9.45;;
65691;SDS011;52411;52.716;6.696;2023-06-24T01:59:45;14.30;;;9.85;;
65691;SDS011;52411;52.716;6.696;2023-06-24T02:02:11;15.75;;;10.23;;
65691;SDS011;52411;52.716;6.696;2023-06-24T02:04:38;14.73;;;9.68;;
65691;SDS011;52411;52.716;6.696;2023-06-24T02:07:04;14.13;;;9.32;;
65691;SDS011;52411;52.716;6.696;2023-06-24T02:09:31;13.23;;;9.90;;
65691;SDS011;52411;52.716;6.696;2023-06-24T02:11:58;14.20;;;9.40;;
65691;SDS011;52411;52.716;6.696;2023-06-24T02:14:26;10.60;;;7.65;;
65691;SDS011;52411;52.716;6.696;2023-06-24T02:16:54;10.73;;;7.28;;
65691;SDS011;52411;52.716;6.696;2023-06-24T02:19:25;11.00;;;7.88;;
65691;SDS011;52411;52.716;6.696;2023-06-24T02:21:54;10.80;;;8.43;;
65691;SDS011;52411;52.716;6.696;2023-06-24T02:24:24;10.43;;;8.20;;
65691;SDS011;52411;52.716;6.696;2023-06-24T02:26:51;12.98;;;8.85;;
65691;SDS011;52411;52.716;6.696;2023-06-24T02:29:19;13.38;;;8.68;;
65691;SDS011;52411;52.716;6.696;2023-06-24T02:31:46;12.57;;;8.73;;
65691;SDS011;52411;52.716;6.696;2023-06-24T02:34:12;12.13;;;8.00;;
65691;SDS011;52411;52.716;6.696;2023-06-24T02:36:38;12.70;;;9.38;;
65691;SDS011;52411;52.716;6.696;2023-06-24T02:39:04;9.73;;;7.75;;
65691;SDS011;52411;52.716;6.696;2023-06-24T02:41:29;9.82;;;7.20;;
65691;SDS011;52411;52.716;6.696;2023-06-24T02:43:55;10.40;;;8.05;;
65691;SDS011;52411;52.716;6.696;2023-06-24T02:46:21;11.45;;;7.85;;
65691;SDS011;52411;52.716;6.696;2023-06-24T02:48:48;12.18;;;9.48;;
65691;SDS011;52411;52.716;6.696;2023-06-24T02:51:14;12.82;;;8.57;;
65691;SDS011;52411;52.716;6.696;2023-06-24T02:53:40;11.57;;;7.45;;
65691;SDS011;52411;52.716;6.696;2023-06-24T02:56:08;11.75;;;7.80;;
65691;SDS011;52411;52.716;6.696;2023-06-24T02:58:36;10.77;;;8.25;;
65691;SDS011;52411;52.716;6.696;2023-06-24T03:01:03;10.40;;;8.10;;
65691;SDS011;52411;52.716;6.696;2023-06-24T03:03:28;11.40;;;8.63;;
65691;SDS011;52411;52.716;6.696;2023-06-24T03:05:55;11.88;;;7.88;;
65691;SDS011;52411;52.716;6.696;2023-06-24T03:08:24;13.52;;;8.30;;
65691;SDS011;52411;52.716;6.696;2023-06-24T03:10:51;11.50;;;8.18;;
65691;SDS011;52411;52.716;6.696;2023-06-24T03:13:21;12.75;;;8.70;;
65691;SDS011;52411;52.716;6.696;2023-06-24T03:15:47;12.40;;;8.95;;
65691;SDS011;52411;52.716;6.696;2023-06-24T03:18:12;15.30;;;9.23;;
65691;SDS011;52411;52.716;6.696;2023-06-24T03:20:38;14.55;;;9.80;;
65691;SDS011;52411;52.716;6.696;2023-06-24T03:23:06;13.95;;;9.73;;
65691;SDS011;52411;52.716;6.696;2023-06-24T03:25:33;7.65;;;5.63;;
65691;SDS011;52411;52.716;6.696;2023-06-24T03:27:59;10.38;;;7.10;;
65691;SDS011;52411;52.716;6.696;2023-06-24T03:30:32;9.20;;;6.80;;
65691;SDS011;52411;52.716;6.696;2023-06-24T03:32:58;11.65;;;7.68;;
65691;SDS011;52411;52.716;6.696;2023-06-24T03:35:23;9.68;;;5.78;;
65691;SDS011;52411;52.716;6.696;2023-06-24T03:37:49;9.07;;;6.00;;
65691;SDS011;52411;52.716;6.696;2023-06-24T03:40:16;5.80;;;4.35;;
65691;SDS011;52411;52.716;6.696;2023-06-24T03:42:42;9.38;;;7.00;;
65691;SDS011;52411;52.716;6.696;2023-06-24T03:45:08;12.40;;;8.27;;
65691;SDS011;52411;52.716;6.696;2023-06-24T03:47:34;9.93;;;7.72;;
65691;SDS011;52411;52.716;6.696;2023-06-24T03:49:59;12.40;;;8.50;;
65691;SDS011;52411;52.716;6.696;2023-06-24T03:52:25;7.35;;;5.50;;
65691;SDS011;52411;52.716;6.696;2023-06-24T03:54:50;3.95;;;3.38;;
65691;SDS011;52411;52.716;6.696;2023-06-24T03:57:16;6.10;;;3.47;;
65691;SDS011;52411;52.716;6.696;2023-06-24T03:59:43;6.95;;;5.10;;
65691;SDS011;52411;52.716;6.696;2023-06-24T04:02:08;6.25;;;4.68;;
65691;SDS011;52411;52.716;6.696;2023-06-24T04:04:34;5.63;;;4.45;;
65691;SDS011;52411;52.716;6.696;2023-06-24T04:07:00;9.43;;;6.38;;
65691;SDS011;52411;52.716;6.696;2023-06-24T04:09:26;9.48;;;6.18;;
65691;SDS011;52411;52.716;6.696;2023-06-24T04:11:54;9.82;;;6.95;;
65691;SDS011;52411;52.716;6.696;2023-06-24T04:14:19;13.93;;;7.65;;
65691;SDS011;52411;52.716;6.696;2023-06-24T04:16:45;11.40;;;8.18;;
65691;SDS011;52411;52.716;6.696;2023-06-24T04:19:10;13.50;;;8.57;;
65691;SDS011;52411;52.716;6.696;2023-06-24T04:21:36;14.25;;;9.15;;
65691;SDS011;52411;52.716;6.696;2023-06-24T04:24:02;16.73;;;9.85;;
65691;SDS011;52411;52.716;6.696;2023-06-24T04:26:28;14.13;;;10.13;;
65691;SDS011;52411;52.716;6.696;2023-06-24T04:28:54;14.95;;;10.40;;
65691;SDS011;52411;52.716;6.696;2023-06-24T04:31:20;14.88;;;10.55;;
65691;SDS011;52411;52.716;6.696;2023-06-24T04:33:45;15.73;;;10.60;;
65691;SDS011;52411;52.716;6.696;2023-06-24T04:36:11;15.45;;;10.43;;
65691;SDS011;52411;52.716;6.696;2023-06-24T04:38:36;16.05;;;10.88;;
65691;SDS011;52411;52.716;6.696;2023-06-24T04:41:02;15.32;;;10.88;;
65691;SDS011;52411;52.716;6.696;2023-06-24T04:43:28;17.15;;;12.02;;
65691;SDS011;52411;52.716;6.696;2023-06-24T04:45:54;21.02;;;13.38;;
65691;SDS011;52411;52.716;6.696;2023-06-24T04:48:22;19.38;;;12.65;;
65691;SDS011;52411;52.716;6.696;2023-06-24T04:50:48;18.05;;;11.88;;
65691;SDS011;52411;52.716;6.696;2023-06-24T04:53:14;19.10;;;12.77;;
65691;SDS011;52411;52.716;6.696;2023-06-24T04:55:40;18.67;;;12.38;;
65691;SDS011;52411;52.716;6.696;2023-06-24T04:58:06;17.15;;;12.23;;
65691;SDS011;52411;52.716;6.696;2023-06-24T05:00:31;19.25;;;12.05;;
65691;SDS011;52411;52.716;6.696;2023-06-24T05:02:57;21.90;;;12.82;;
65691;SDS011;52411;52.716;6.696;2023-06-24T05:05:23;22.30;;;13.27;;
65691;SDS011;52411;52.716;6.696;2023-06-24T05:07:49;21.00;;;13.30;;
65691;SDS011;52411;52.716;6.696;2023-06-24T05:10:14;21.73;;;13.95;;
65691;SDS011;52411;52.716;6.696;2023-06-24T05:12:40;20.70;;;14.02;;
65691;SDS011;52411;52.716;6.696;2023-06-24T05:15:06;22.23;;;14.50;;
65691;SDS011;52411;52.716;6.696;2023-06-24T05:17:32;21.50;;;13.88;;
65691;SDS011;52411;52.716;6.696;2023-06-24T05:19:58;18.98;;;14.00;;
65691;SDS011;52411;52.716;6.696;2023-06-24T05:22:24;22.30;;;13.68;;
65691;SDS011;52411;52.716;6.696;2023-06-24T05:24:49;20.30;;;14.48;;
65691;SDS011;52411;52.716;6.696;2023-06-24T05:27:15;22.90;;;15.07;;
65691;SDS011;52411;52.716;6.696;2023-06-24T05:29:42;18.80;;;13.95;;
65691;SDS011;52411;52.716;6.696;2023-06-24T05:32:08;18.52;;;13.80;;
65691;SDS011;52411;52.716;6.696;2023-06-24T05:34:34;19.98;;;14.63;;
65691;SDS011;52411;52.716;6.696;2023-06-24T05:37:00;22.38;;;14.50;;
65691;SDS011;52411;52.716;6.696;2023-06-24T05:39:25;22.20;;;14.52;;
65691;SDS011;52411;52.716;6.696;2023-06-24T05:41:51;22.40;;;14.68;;
65691;SDS011;52411;52.716;6.696;2023-06-24T05:44:17;21.23;;;14.88;;
65691;SDS011;52411;52.716;6.696;2023-06-24T05:46:43;23.27;;;15.55;;
65691;SDS011;52411;52.716;6.696;2023-06-24T05:49:10;20.63;;;14.55;;
65691;SDS011;52411;52.716;6.696;2023-06-24T05:51:36;23.30;;;16.02;;
65691;SDS011;52411;52.716;6.696;2023-06-24T05:54:01;25.17;;;15.40;;
65691;SDS011;52411;52.716;6.696;2023-06-24T05:56:28;23.38;;;16.20;;
65691;SDS011;52411;52.716;6.696;2023-06-24T05:58:54;24.88;;;16.33;;
65691;SDS011;52411;52.716;6.696;2023-06-24T06:01:20;23.02;;;16.35;;
65691;SDS011;52411;52.716;6.696;2023-06-24T06:03:45;24.15;;;15.02;;
65691;SDS011;52411;52.716;6.696;2023-06-24T06:06:11;22.75;;;15.95;;
65691;SDS011;52411;52.716;6.696;2023-06-24T06:08:36;21.92;;;15.57;;
65691;SDS011;52411;52.716;6.696;2023-06-24T06:11:02;23.58;;;15.52;;
65691;SDS011;52411;52.716;6.696;2023-06-24T06:13:28;22.95;;;15.80;;
65691;SDS011;52411;52.716;6.696;2023-06-24T06:15:54;21.33;;;15.20;;
65691;SDS011;52411;52.716;6.696;2023-06-24T06:18:20;19.50;;;14.57;;
65691;SDS011;52411;52.716;6.696;2023-06-24T06:20:46;19.50;;;14.32;;
65691;SDS011;52411;52.716;6.696;2023-06-24T06:23:12;20.55;;;14.15;;
65691;SDS011;52411;52.716;6.696;2023-06-24T06:25:37;22.17;;;14.55;;
65691;SDS011;52411;52.716;6.696;2023-06-24T06:28:03;23.27;;;14.25;;
65691;SDS011;52411;52.716;6.696;2023-06-24T06:30:29;21.08;;;14.07;;
65691;SDS011;52411;52.716;6.696;2023-06-24T06:32:55;21.70;;;14.13;;
65691;SDS011;52411;52.716;6.696;2023-06-24T06:35:21;17.20;;;12.75;;
65691;SDS011;52411;52.716;6.696;2023-06-24T06:37:46;22.98;;;13.82;;
65691;SDS011;52411;52.716;6.696;2023-06-24T06:40:17;20.57;;;13.27;;
65691;SDS011;52411;52.716;6.696;2023-06-24T06:42:46;17.25;;;12.73;;
65691;SDS011;52411;52.716;6.696;2023-06-24T06:45:12;15.98;;;12.65;;
65691;SDS011;52411;52.716;6.696;2023-06-24T06:47:38;15.52;;;12.70;;
65691;SDS011;52411;52.716;6.696;2023-06-24T06:50:03;17.63;;;12.35;;
65691;SDS011;52411;52.716;6.696;2023-06-24T06:52:30;17.13;;;12.35;;
65691;SDS011;52411;52.716;6.696;2023-06-24T06:54:55;16.40;;;12.25;;
65691;SDS011;52411;52.716;6.696;2023-06-24T06:57:21;16.67;;;11.90;;
65691;SDS011;52411;52.716;6.696;2023-06-24T06:59:47;14.77;;;11.77;;
65691;SDS011;52411;52.716;6.696;2023-06-24T07:02:15;14.18;;;10.65;;
65691;SDS011;52411;52.716;6.696;2023-06-24T07:04:42;18.58;;;10.45;;
65691;SDS011;52411;52.716;6.696;2023-06-24T07:07:08;17.15;;;10.40;;
65691;SDS011;52411;52.716;6.696;2023-06-24T07:09:33;14.52;;;11.23;;
65691;SDS011;52411;52.716;6.696;2023-06-24T07:11:59;15.75;;;10.77;;
65691;SDS011;52411;52.716;6.696;2023-06-24T07:14:25;20.67;;;10.73;;
65691;SDS011;52411;52.716;6.696;2023-06-24T07:16:50;15.15;;;10.30;;
65691;SDS011;52411;52.716;6.696;2023-06-24T07:19:16;16.33;;;10.43;;
65691;SDS011;52411;52.716;6.696;2023-06-24T07:21:42;13.40;;;10.35;;
65691;SDS011;52411;52.716;6.696;2023-06-24T07:24:07;16.98;;;9.70;;
65691;SDS011;52411;52.716;6.696;2023-06-24T07:26:33;16.67;;;9.85;;
65691;SDS011;52411;52.716;6.696;2023-06-24T07:28:58;13.80;;;9.90;;
65691;SDS011;52411;52.716;6.696;2023-06-24T07:31:24;11.68;;;9.57;;
65691;SDS011;52411;52.716;6.696;2023-06-24T07:33:50;13.25;;;9.75;;
65691;SDS011;52411;52.716;6.696;2023-06-24T07:36:16;14.95;;;9.95;;
65691;SDS011;52411;52.716;6.696;2023-06-24T07:38:42;14.15;;;9.43;;
65691;SDS011;52411;52.716;6.696;2023-06-24T07:41:07;13.38;;;10.00;;
65691;SDS011;52411;52.716;6.696;2023-06-24T07:43:33;13.23;;;9.98;;
65691;SDS011;52411;52.716;6.696;2023-06-24T07:45:59;14.48;;;9.52;;
65691;SDS011;52411;52.716;6.696;2023-06-24T07:48:24;15.55;;;10.40;;
65691;SDS011;52411;52.716;6.696;2023-06-24T07:50:50;17.08;;;10.52;;
65691;SDS011;52411;52.716;6.696;2023-06-24T07:53:16;18.40;;;11.18;;
65691;SDS011;52411;52.716;6.696;2023-06-24T07:55:41;18.25;;;10.38;;
65691;SDS011;52411;52.716;6.696;2023-06-24T07:58:07;15.50;;;10.57;;
65691;SDS011;52411;52.716;6.696;2023-06-24T08:00:32;15.68;;;11.10;;
65691;SDS011;52411;52.716;6.696;2023-06-24T08:02:58;15.68;;;11.20;;
65691;SDS011;52411;52.716;6.696;2023-06-24T08:05:24;15.57;;;11.02;;
65691;SDS011;52411;52.716;6.696;2023-06-24T08:07:51;16.67;;;11.40;;
65691;SDS011;52411;52.716;6.696;2023-06-24T08:10:17;15.27;;;10.90;;
65691;SDS011;52411;52.716;6.696;2023-06-24T08:12:43;14.40;;;10.63;;
65691;SDS011;52411;52.716;6.696;2023-06-24T08:15:09;17.17;;;11.20;;
65691;SDS011;52411;52.716;6.696;2023-06-24T08:17:35;15.13;;;11.60;;
65691;SDS011;52411;52.716;6.696;2023-06-24T08:20:03;30.33;;;11.45;;
65691;SDS011;52411;52.716;6.696;2023-06-24T08:22:29;17.30;;;12.30;;
65691;SDS011;52411;52.716;6.696;2023-06-24T08:24:55;14.95;;;11.43;;
65691;SDS011;52411;52.716;6.696;2023-06-24T08:27:21;15.23;;;12.02;;
65691;SDS011;52411;52.716;6.696;2023-06-24T08:29:47;16.13;;;11.88;;
65691;SDS011;52411;52.716;6.696;2023-06-24T08:32:13;21.35;;;12.65;;
65691;SDS011;52411;52.716;6.696;2023-06-24T08:34:38;21.20;;;12.90;;
65691;SDS011;52411;52.716;6.696;2023-06-24T08:37:04;19.08;;;12.25;;
65691;SDS011;52411;52.716;6.696;2023-06-24T08:39:30;18.98;;;12.10;;
65691;SDS011;52411;52.716;6.696;2023-06-24T08:41:55;18.77;;;13.05;;
65691;SDS011;52411;52.716;6.696;2023-06-24T08:44:21;19.73;;;11.75;;
65691;SDS011;52411;52.716;6.696;2023-06-24T08:46:47;14.45;;;10.27;;
65691;SDS011;52411;52.716;6.696;2023-06-24T08:52:31;14.80;;;11.30;;
65691;SDS011;52411;52.716;6.696;2023-06-24T08:54:38;18.08;;;10.35;;
65691;SDS011;52411;52.716;6.696;2023-06-24T08:57:06;13.90;;;9.85;;
65691;SDS011;52411;52.716;6.696;2023-06-24T08:59:33;16.08;;;11.13;;
65691;SDS011;52411;52.716;6.696;2023-06-24T09:02:00;16.83;;;10.35;;
65691;SDS011;52411;52.716;6.696;2023-06-24T09:04:25;14.00;;;9.77;;
65691;SDS011;52411;52.716;6.696;2023-06-24T09:06:51;14.32;;;10.00;;
65691;SDS011;52411;52.716;6.696;2023-06-24T09:09:17;15.68;;;10.70;;
65691;SDS011;52411;52.716;6.696;2023-06-24T09:11:50;13.43;;;9.80;;
65691;SDS011;52411;52.716;6.696;2023-06-24T09:14:17;15.15;;;10.98;;
65691;SDS011;52411;52.716;6.696;2023-06-24T09:16:50;15.48;;;10.82;;
65691;SDS011;52411;52.716;6.696;2023-06-24T09:19:20;13.65;;;9.88;;
65691;SDS011;52411;52.716;6.696;2023-06-24T09:21:46;13.20;;;8.55;;
65691;SDS011;52411;52.716;6.696;2023-06-24T09:24:12;10.32;;;7.40;;
65691;SDS011;52411;52.716;6.696;2023-06-24T09:26:37;11.80;;;6.43;;
65691;SDS011;52411;52.716;6.696;2023-06-24T09:29:03;8.38;;;6.20;;
65691;SDS011;52411;52.716;6.696;2023-06-24T09:31:29;13.32;;;9.57;;
65691;SDS011;52411;52.716;6.696;2023-06-24T09:33:57;15.35;;;9.95;;
65691;SDS011;52411;52.716;6.696;2023-06-24T09:36:23;15.18;;;10.43;;
65691;SDS011;52411;52.716;6.696;2023-06-24T09:38:49;14.40;;;9.85;;
65691;SDS011;52411;52.716;6.696;2023-06-24T09:41:15;14.30;;;9.95;;
65691;SDS011;52411;52.716;6.696;2023-06-24T09:43:41;11.82;;;8.40;;
65691;SDS011;52411;52.716;6.696;2023-06-24T09:46:09;11.48;;;6.57;;
65691;SDS011;52411;52.716;6.696;2023-06-24T09:48:34;10.15;;;5.80;;
65691;SDS011;52411;52.716;6.696;2023-06-24T09:51:01;8.27;;;6.20;;
65691;SDS011;52411;52.716;6.696;2023-06-24T09:53:32;9.43;;;7.03;;
65691;SDS011;52411;52.716;6.696;2023-06-24T09:55:59;10.93;;;6.70;;
65691;SDS011;52411;52.716;6.696;2023-06-24T09:58:28;11.35;;;6.95;;
65691;SDS011;52411;52.716;6.696;2023-06-24T10:00:59;10.77;;;8.05;;
65691;SDS011;52411;52.716;6.696;2023-06-24T10:03:28;12.82;;;8.30;;
65691;SDS011;52411;52.716;6.696;2023-06-24T10:05:56;10.57;;;7.60;;
65691;SDS011;52411;52.716;6.696;2023-06-24T10:08:22;7.95;;;6.15;;
65691;SDS011;52411;52.716;6.696;2023-06-24T10:10:48;9.05;;;6.43;;
65691;SDS011;52411;52.716;6.696;2023-06-24T10:13:14;8.10;;;5.57;;
65691;SDS011;52411;52.716;6.696;2023-06-24T10:15:40;6.97;;;4.25;;
65691;SDS011;52411;52.716;6.696;2023-06-24T10:18:31;11.32;;;4.65;;
65691;SDS011;52411;52.716;6.696;2023-06-24T10:20:59;5.22;;;4.20;;
65691;SDS011;52411;52.716;6.696;2023-06-24T10:23:38;5.82;;;4.68;;
65691;SDS011;52411;52.716;6.696;2023-06-24T10:26:09;7.20;;;4.53;;
65691;SDS011;52411;52.716;6.696;2023-06-24T10:29:09;7.18;;;4.95;;
65691;SDS011;52411;52.716;6.696;2023-06-24T10:44:53;9.40;;;5.88;;
65691;SDS011;52411;52.716;6.696;2023-06-24T10:47:46;8.20;;;6.22;;
65691;SDS011;52411;52.716;6.696;2023-06-24T10:50:20;8.82;;;6.45;;
65691;SDS011;52411;52.716;6.696;2023-06-24T10:52:48;9.07;;;5.88;;
65691;SDS011;52411;52.716;6.696;2023-06-24T10:55:20;10.40;;;6.07;;
65691;SDS011;52411;52.716;6.696;2023-06-24T10:57:47;9.05;;;5.93;;
65691;SDS011;52411;52.716;6.696;2023-06-24T11:00:13;8.55;;;5.90;;
65691;SDS011;52411;52.716;6.696;2023-06-24T11:02:40;7.63;;;5.65;;
65691;SDS011;52411;52.716;6.696;2023-06-24T11:05:06;10.88;;;6.30;;
65691;SDS011;52411;52.716;6.696;2023-06-24T11:07:33;7.88;;;5.45;;
65691;SDS011;52411;52.716;6.696;2023-06-24T11:12:33;8.50;;;5.35;;
65691;SDS011;52411;52.716;6.696;2023-06-24T11:15:04;9.05;;;5.80;;
65691;SDS011;52411;52.716;6.696;2023-06-24T11:19:57;8.02;;;5.60;;
65691;SDS011;52411;52.716;6.696;2023-06-24T11:22:23;8.27;;;5.70;;
65691;SDS011;52411;52.716;6.696;2023-06-24T11:24:50;8.82;;;5.45;;
65691;SDS011;52411;52.716;6.696;2023-06-24T11:27:16;7.40;;;5.40;;
65691;SDS011;52411;52.716;6.696;2023-06-24T11:29:48;8.10;;;5.10;;
65691;SDS011;52411;52.716;6.696;2023-06-24T11:32:16;8.73;;;4.93;;
65691;SDS011;52411;52.716;6.696;2023-06-24T11:34:42;6.05;;;4.50;;
65691;SDS011;52411;52.716;6.696;2023-06-24T11:37:08;6.90;;;5.00;;
65691;SDS011;52411;52.716;6.696;2023-06-24T11:39:35;8.63;;;5.00;;
65691;SDS011;52411;52.716;6.696;2023-06-24T11:42:01;8.95;;;5.68;;
65691;SDS011;52411;52.716;6.696;2023-06-24T11:44:27;8.88;;;5.38;;
65691;SDS011;52411;52.716;6.696;2023-06-24T11:46:52;7.13;;;4.95;;
65691;SDS011;52411;52.716;6.696;2023-06-24T11:49:18;8.35;;;5.10;;
65691;SDS011;52411;52.716;6.696;2023-06-24T11:51:48;7.60;;;5.47;;
65691;SDS011;52411;52.716;6.696;2023-06-24T11:54:16;9.98;;;5.10;;
65691;SDS011;52411;52.716;6.696;2023-06-24T11:56:43;8.30;;;5.40;;
65691;SDS011;52411;52.716;6.696;2023-06-24T11:59:19;8.02;;;5.45;;
65691;SDS011;52411;52.716;6.696;2023-06-24T12:01:53;8.25;;;5.80;;
65691;SDS011;52411;52.716;6.696;2023-06-24T12:04:28;6.05;;;4.95;;
65691;SDS011;52411;52.716;6.696;2023-06-24T12:06:54;6.28;;;4.80;;
65691;SDS011;52411;52.716;6.696;2023-06-24T12:09:20;8.13;;;5.70;;
65691;SDS011;52411;52.716;6.696;2023-06-24T12:11:46;8.77;;;4.95;;
65691;SDS011;52411;52.716;6.696;2023-06-24T12:14:11;6.57;;;4.60;;
65691;SDS011;52411;52.716;6.696;2023-06-24T12:16:38;6.50;;;4.70;;
65691;SDS011;52411;52.716;6.696;2023-06-24T12:19:04;9.32;;;4.80;;
65691;SDS011;52411;52.716;6.696;2023-06-24T12:21:31;6.25;;;4.60;;
65691;SDS011;52411;52.716;6.696;2023-06-24T12:23:56;7.53;;;4.90;;
65691;SDS011;52411;52.716;6.696;2023-06-24T12:26:22;5.82;;;4.93;;
65691;SDS011;52411;52.716;6.696;2023-06-24T12:28:48;7.18;;;4.57;;
65691;SDS011;52411;52.716;6.696;2023-06-24T12:31:13;6.18;;;4.53;;
65691;SDS011;52411;52.716;6.696;2023-06-24T12:33:39;7.35;;;5.00;;
65691;SDS011;52411;52.716;6.696;2023-06-24T12:36:05;5.70;;;4.60;;
65691;SDS011;52411;52.716;6.696;2023-06-24T12:38:30;6.97;;;4.93;;
65691;SDS011;52411;52.716;6.696;2023-06-24T12:40:56;5.57;;;4.97;;
65691;SDS011;52411;52.716;6.696;2023-06-24T12:43:22;6.88;;;5.00;;
65691;SDS011;52411;52.716;6.696;2023-06-24T12:45:48;8.02;;;4.75;;
65691;SDS011;52411;52.716;6.696;2023-06-24T12:48:16;5.88;;;4.70;;
65691;SDS011;52411;52.716;6.696;2023-06-24T12:50:41;6.22;;;4.93;;
65691;SDS011;52411;52.716;6.696;2023-06-24T12:53:08;6.13;;;4.80;;
65691;SDS011;52411;52.716;6.696;2023-06-24T12:55:35;8.05;;;5.28;;
65691;SDS011;52411;52.716;6.696;2023-06-24T12:58:01;7.95;;;4.78;;
65691;SDS011;52411;52.716;6.696;2023-06-24T13:00:27;7.75;;;4.95;;
65691;SDS011;52411;52.716;6.696;2023-06-24T13:02:53;6.53;;;3.90;;
65691;SDS011;52411;52.716;6.696;2023-06-24T13:05:18;5.53;;;4.70;;
65691;SDS011;52411;52.716;6.696;2023-06-24T13:07:44;5.43;;;4.40;;
65691;SDS011;52411;52.716;6.696;2023-06-24T13:10:10;6.30;;;4.78;;
65691;SDS011;52411;52.716;6.696;2023-06-24T13:12:36;6.38;;;4.85;;
65691;SDS011;52411;52.716;6.696;2023-06-24T13:15:03;6.68;;;4.75;;
65691;SDS011;52411;52.716;6.696;2023-06-24T13:17:29;6.15;;;4.50;;
65691;SDS011;52411;52.716;6.696;2023-06-24T13:19:55;6.15;;;4.88;;
65691;SDS011;52411;52.716;6.696;2023-06-24T13:22:21;7.60;;;4.75;;
65691;SDS011;52411;52.716;6.696;2023-06-24T13:24:47;6.13;;;4.22;;
65691;SDS011;52411;52.716;6.696;2023-06-24T13:27:13;5.70;;;4.22;;
65691;SDS011;52411;52.716;6.696;2023-06-24T13:29:38;5.10;;;4.10;;
65691;SDS011;52411;52.716;6.696;2023-06-24T13:32:04;5.60;;;4.57;;
65691;SDS011;52411;52.716;6.696;2023-06-24T13:34:30;5.25;;;3.95;;
65691;SDS011;52411;52.716;6.696;2023-06-24T13:36:56;4.85;;;3.88;;
65691;SDS011;52411;52.716;6.696;2023-06-24T13:39:21;5.68;;;4.38;;
65691;SDS011;52411;52.716;6.696;2023-06-24T13:41:49;5.90;;;4.30;;
65691;SDS011;52411;52.716;6.696;2023-06-24T13:44:15;6.00;;;4.40;;
65691;SDS011;52411;52.716;6.696;2023-06-24T13:46:41;5.40;;;4.07;;
65691;SDS011;52411;52.716;6.696;2023-06-24T13:49:07;5.90;;;3.90;;
65691;SDS011;52411;52.716;6.696;2023-06-24T13:51:32;6.50;;;4.00;;
65691;SDS011;52411;52.716;6.696;2023-06-24T13:53:59;4.93;;;4.13;;
65691;SDS011;52411;52.716;6.696;2023-06-24T13:56:24;6.65;;;4.18;;
65691;SDS011;52411;52.716;6.696;2023-06-24T13:58:51;7.05;;;4.80;;
65691;SDS011;52411;52.716;6.696;2023-06-24T14:01:17;6.45;;;4.60;;
65691;SDS011;52411;52.716;6.696;2023-06-24T14:03:43;6.00;;;4.70;;
65691;SDS011;52411;52.716;6.696;2023-06-24T14:06:10;5.13;;;4.45;;
65691;SDS011;52411;52.716;6.696;2023-06-24T14:08:36;5.95;;;4.70;;
65691;SDS011;52411;52.716;6.696;2023-06-24T14:11:02;6.55;;;5.10;;
65691;SDS011;52411;52.716;6.696;2023-06-24T14:13:39;5.32;;;4.22;;
65691;SDS011;52411;52.716;6.696;2023-06-24T14:16:05;7.68;;;4.90;;
65691;SDS011;52411;52.716;6.696;2023-06-24T14:18:31;7.47;;;5.30;;
65691;SDS011;52411;52.716;6.696;2023-06-24T14:20:57;7.82;;;5.10;;
65691;SDS011;52411;52.716;6.696;2023-06-24T14:23:24;5.97;;;4.80;;
65691;SDS011;52411;52.716;6.696;2023-06-24T14:25:53;5.95;;;4.63;;
65691;SDS011;52411;52.716;6.696;2023-06-24T14:28:19;6.18;;;4.82;;
65691;SDS011;52411;52.716;6.696;2023-06-24T14:30:45;7.70;;;4.95;;
65691;SDS011;52411;52.716;6.696;2023-06-24T14:33:11;8.07;;;4.88;;
65691;SDS011;52411;52.716;6.696;2023-06-24T14:35:37;6.15;;;4.88;;
65691;SDS011;52411;52.716;6.696;2023-06-24T14:38:03;8.77;;;6.05;;
65691;SDS011;52411;52.716;6.696;2023-06-24T14:40:29;7.22;;;5.30;;
65691;SDS011;52411;52.716;6.696;2023-06-24T14:42:56;6.38;;;5.55;;
65691;SDS011;52411;52.716;6.696;2023-06-24T14:45:22;8.32;;;5.88;;
65691;SDS011;52411;52.716;6.696;2023-06-24T14:47:47;7.72;;;5.70;;
65691;SDS011;52411;52.716;6.696;2023-06-24T14:50:13;6.80;;;5.05;;
65691;SDS011;52411;52.716;6.696;2023-06-24T14:52:39;10.00;;;6.05;;
65691;SDS011;52411;52.716;6.696;2023-06-24T14:55:04;17.58;;;5.38;;
65691;SDS011;52411;52.716;6.696;2023-06-24T14:57:30;6.90;;;5.00;;
65691;SDS011;52411;52.716;6.696;2023-06-24T14:59:56;15.65;;;5.22;;
65691;SDS011;52411;52.716;6.696;2023-06-24T15:02:22;6.90;;;5.68;;
65691;SDS011;52411;52.716;6.696;2023-06-24T15:04:47;6.22;;;5.30;;